createdAt,value
2019-05-11T00:01:42.276Z,21.20
2019-05-11T00:04:09.224Z,22.37
2019-05-11T00:06:36.141Z,20.00
2019-05-11T00:09:05.341Z,19.47
2019-05-11T00:11:32.336Z,18.17
2019-05-11T00:13:59.281Z,26.73
2019-05-11T00:16:26.190Z,19.73
2019-05-11T00:18:53.138Z,27.03
2019-05-11T00:21:20.095Z,19.67
2019-05-11T00:23:47.045Z,20.13
2019-05-11T00:26:13.949Z,22.30
2019-05-11T00:28:40.890Z,23.57
2019-05-11T00:31:07.805Z,28.77
2019-05-11T00:33:34.774Z,21.20
2019-05-11T00:36:01.686Z,24.57
2019-05-11T00:38:28.774Z,23.50
2019-05-11T00:40:55.709Z,24.90
2019-05-11T00:43:22.660Z,25.10
2019-05-11T00:45:49.570Z,26.53
2019-05-11T00:48:16.524Z,25.97
2019-05-11T00:50:43.451Z,26.27
2019-05-11T00:53:10.406Z,28.17
2019-05-11T00:55:37.326Z,26.57
2019-05-11T00:58:04.262Z,30.67
2019-05-11T01:00:31.240Z,28.13
2019-05-11T01:02:58.161Z,31.87
2019-05-11T01:05:25.076Z,32.87
2019-05-11T01:07:52.122Z,32.10
2019-05-11T01:10:25.480Z,31.13
2019-05-11T01:12:47.999Z,32.00
2019-05-11T01:15:15.123Z,35.07
2019-05-11T01:17:42.040Z,35.40
2019-05-11T01:20:09.013Z,36.40
2019-05-11T01:22:36.183Z,34.07
2019-05-11T01:25:03.569Z,35.70
2019-05-11T01:27:30.479Z,41.37
2019-05-11T01:29:57.453Z,34.27
2019-05-11T01:32:24.406Z,38.53
2019-05-11T01:34:51.347Z,40.60
2019-05-11T01:37:18.282Z,33.53
2019-05-11T01:39:45.242Z,39.00
2019-05-11T01:42:12.217Z,37.03
2019-05-11T01:44:39.163Z,36.10
2019-05-11T01:47:06.092Z,38.87
2019-05-11T01:49:33.059Z,38.37
2019-05-11T01:51:59.977Z,43.77
2019-05-11T01:54:27.001Z,46.60
2019-05-11T01:56:53.963Z,41.97
2019-05-11T01:59:20.901Z,43.60
2019-05-11T02:01:47.874Z,48.40
2019-05-11T02:04:14.831Z,51.77
2019-05-11T02:06:41.748Z,43.50
2019-05-11T02:09:08.696Z,49.30
2019-05-11T02:11:35.610Z,46.70
2019-05-11T02:14:02.602Z,51.43
2019-05-11T02:16:29.518Z,49.60
2019-05-11T02:18:56.470Z,52.50
2019-05-11T02:21:23.386Z,45.67
2019-05-11T02:23:50.446Z,50.63
2019-05-11T02:26:17.370Z,46.90
2019-05-11T02:28:44.640Z,47.70
2019-05-11T02:31:11.573Z,52.30
2019-05-11T02:33:38.536Z,51.57
2019-05-11T02:36:05.514Z,55.10
2019-05-11T02:38:32.430Z,53.53
2019-05-11T02:40:59.391Z,53.00
2019-05-11T02:43:26.335Z,52.70
2019-05-11T02:45:53.289Z,55.50
2019-05-11T02:48:20.215Z,49.43
2019-05-11T02:50:47.580Z,49.50
2019-05-11T02:53:15.108Z,53.30
2019-05-11T02:55:43.887Z,59.90
2019-05-11T02:58:10.844Z,68.30
2019-05-11T03:00:39.977Z,54.73
2019-05-11T03:03:06.909Z,50.97
2019-05-11T03:05:33.867Z,53.93
2019-05-11T03:08:00.800Z,47.00
2019-05-11T03:10:27.784Z,51.87
2019-05-11T03:12:54.670Z,53.73
2019-05-11T03:15:21.633Z,56.93
2019-05-11T03:17:48.739Z,51.50
2019-05-11T03:20:15.684Z,57.17
2019-05-11T03:22:42.598Z,51.77
2019-05-11T03:25:09.588Z,47.87
2019-05-11T03:27:36.461Z,43.23
2019-05-11T03:30:03.919Z,48.00
2019-05-11T03:32:30.847Z,42.30
2019-05-11T03:34:57.815Z,41.40
2019-05-11T03:37:24.736Z,39.57
2019-05-11T03:39:51.698Z,42.27
2019-05-11T03:42:18.611Z,37.77
2019-05-11T03:44:45.564Z,44.43
2019-05-11T03:47:12.472Z,36.47
2019-05-11T03:49:39.425Z,34.47
2019-05-11T03:52:06.335Z,30.67
2019-05-11T03:54:33.283Z,29.67
2019-05-11T03:57:00.202Z,32.93
2019-05-11T03:59:27.134Z,35.10
2019-05-11T04:01:54.078Z,32.27
2019-05-11T04:04:21.021Z,31.13
2019-05-11T04:06:47.966Z,31.10
2019-05-11T04:09:14.885Z,28.10
2019-05-11T04:11:41.836Z,27.70
2019-05-11T04:14:08.805Z,28.80
2019-05-11T04:16:35.711Z,30.03
2019-05-11T04:19:02.645Z,23.67
2019-05-11T04:21:29.603Z,26.73
2019-05-11T04:23:56.531Z,39.27
2019-05-11T04:26:23.490Z,24.87
2019-05-11T04:28:50.448Z,27.10
2019-05-11T04:31:17.421Z,24.10
2019-05-11T04:33:44.322Z,31.37
2019-05-11T04:36:11.286Z,25.30
2019-05-11T04:38:38.211Z,33.63
2019-05-11T04:41:05.191Z,29.70
2019-05-11T04:43:32.122Z,22.23
2019-05-11T04:45:59.084Z,28.03
2019-05-11T04:48:26.008Z,23.93
2019-05-11T04:50:52.970Z,28.10
2019-05-11T04:53:19.964Z,22.00
2019-05-11T04:55:46.916Z,29.67
2019-05-11T04:58:13.852Z,24.20
2019-05-11T05:00:40.824Z,21.80
2019-05-11T05:03:07.743Z,25.57
2019-05-11T05:05:34.689Z,23.23
2019-05-11T05:08:09.481Z,22.93
2019-05-11T05:10:30.720Z,28.87
2019-05-11T05:13:09.691Z,22.80
2019-05-11T05:15:26.554Z,25.47
2019-05-11T05:17:53.525Z,29.03
2019-05-11T05:20:20.514Z,22.43
2019-05-11T05:22:47.503Z,25.60
2019-05-11T05:25:14.487Z,28.97
2019-05-11T05:27:41.433Z,24.03
2019-05-11T05:30:08.871Z,36.50
2019-05-11T05:32:35.978Z,26.90
2019-05-11T05:35:03.117Z,24.70
2019-05-11T05:37:30.065Z,22.13
2019-05-11T05:39:56.985Z,25.87
2019-05-11T05:42:23.952Z,22.60
2019-05-11T05:44:50.898Z,22.90
2019-05-11T05:47:17.860Z,23.80
2019-05-11T05:49:44.798Z,22.10
2019-05-11T05:52:12.397Z,31.50
2019-05-11T05:54:39.329Z,21.17
2019-05-11T05:57:06.274Z,21.40
2019-05-11T05:59:33.292Z,22.00
2019-05-11T06:02:00.268Z,22.80
2019-05-11T06:04:27.199Z,30.40
2019-05-11T06:06:54.157Z,22.53
2019-05-11T06:09:21.086Z,25.53
2019-05-11T06:11:48.053Z,21.60
2019-05-11T06:14:14.995Z,21.90
2019-05-11T06:16:42.008Z,17.90
2019-05-11T06:19:08.923Z,20.57
2019-05-11T06:21:35.873Z,25.00
2019-05-11T06:24:06.507Z,21.10
2019-05-11T06:26:31.859Z,24.53
2019-05-11T06:28:58.784Z,20.17
2019-05-11T06:31:25.752Z,20.60
2019-05-11T06:33:52.709Z,18.27
2019-05-11T06:36:19.655Z,22.87
2019-05-11T06:38:46.595Z,22.00
2019-05-11T06:41:13.596Z,22.40
2019-05-11T06:43:40.542Z,22.60
2019-05-11T06:46:07.478Z,19.40
2019-05-11T06:48:34.442Z,20.57
2019-05-11T06:51:01.398Z,20.27
2019-05-11T06:53:28.387Z,23.50
2019-05-11T06:55:55.306Z,20.87
2019-05-11T06:58:22.252Z,19.70
2019-05-11T07:00:49.187Z,21.00
2019-05-11T07:03:16.188Z,22.83
2019-05-11T07:05:43.398Z,26.10
2019-05-11T07:08:10.355Z,24.27
2019-05-11T07:10:37.293Z,26.23
2019-05-11T07:13:04.266Z,22.77
2019-05-11T07:15:31.194Z,23.40
2019-05-11T07:17:58.155Z,21.37
2019-05-11T07:20:25.147Z,22.10
2019-05-11T07:22:52.556Z,27.83
2019-05-11T07:25:19.482Z,24.60
2019-05-11T07:27:46.472Z,24.03
2019-05-11T07:30:13.519Z,25.40
2019-05-11T07:32:40.542Z,24.13
2019-05-11T07:35:08.395Z,24.57
2019-05-11T07:37:38.266Z,24.40
2019-05-11T07:40:04.989Z,23.43
2019-05-11T07:42:32.044Z,25.10
2019-05-11T07:44:58.920Z,24.97
2019-05-11T07:47:27.806Z,28.97
2019-05-11T07:49:54.734Z,25.10
2019-05-11T07:52:21.696Z,23.27
2019-05-11T07:54:52.596Z,26.10
2019-05-11T07:57:18.612Z,26.30
2019-05-11T07:59:45.824Z,29.37
2019-05-11T08:02:12.767Z,28.77
2019-05-11T08:04:39.715Z,27.20
2019-05-11T08:07:07.677Z,32.07
2019-05-11T08:09:34.810Z,24.73
2019-05-11T08:12:01.790Z,25.97
2019-05-11T08:14:28.964Z,28.00
2019-05-11T08:16:56.061Z,29.17
2019-05-11T08:19:23.033Z,26.40
2019-05-11T08:21:49.976Z,26.20
2019-05-11T08:24:18.039Z,24.87
2019-05-11T08:26:45.091Z,23.57
2019-05-11T08:29:12.043Z,28.70
2019-05-11T08:31:38.972Z,26.60
2019-05-11T08:34:05.933Z,29.13
2019-05-11T08:36:32.900Z,23.90
2019-05-11T08:38:59.863Z,22.00
2019-05-11T08:41:27.969Z,24.67
2019-05-11T08:43:55.200Z,21.13
2019-05-11T08:46:22.115Z,20.90
2019-05-11T08:48:49.072Z,21.27
2019-05-11T08:51:18.378Z,18.07
2019-05-11T08:53:44.908Z,18.63
2019-05-11T08:56:13.310Z,19.37
2019-05-11T08:58:40.402Z,20.97
2019-05-11T09:01:08.811Z,21.27
2019-05-11T09:03:35.999Z,26.20
2019-05-11T09:06:02.981Z,16.17
2019-05-11T09:08:29.952Z,17.40
2019-05-11T09:10:58.206Z,18.40
2019-05-11T09:13:27.703Z,18.30
2019-05-11T09:15:54.232Z,18.27
2019-05-11T09:18:21.184Z,18.27
2019-05-11T09:20:48.767Z,19.30
2019-05-11T09:23:32.952Z,16.93
2019-05-11T09:25:44.626Z,24.80
2019-05-11T09:28:11.564Z,16.20
2019-05-11T09:30:38.497Z,20.67
2019-05-11T09:33:05.457Z,30.23
2019-05-11T09:35:46.433Z,27.57
2019-05-11T09:38:01.258Z,20.77
2019-05-11T09:40:28.486Z,21.70
2019-05-11T09:42:58.333Z,19.67
2019-05-11T09:45:24.850Z,23.70
2019-05-11T09:47:51.857Z,23.93
2019-05-11T09:50:18.815Z,24.80
2019-05-11T09:52:45.762Z,18.80
2019-05-11T09:55:12.723Z,16.03
2019-05-11T09:57:39.691Z,22.70
2019-05-11T10:00:08.763Z,23.30
2019-05-11T10:02:38.327Z,16.87
2019-05-11T10:05:05.375Z,17.40
2019-05-11T10:07:32.664Z,19.53
2019-05-11T10:09:59.682Z,15.53
2019-05-11T10:12:28.602Z,18.73
2019-05-11T10:14:55.718Z,14.37
2019-05-11T10:17:22.721Z,19.90
2019-05-11T10:19:49.856Z,21.70
2019-05-11T10:22:18.924Z,19.80
2019-05-11T10:24:47.688Z,19.13
2019-05-11T10:27:15.281Z,22.17
2019-05-11T10:29:42.246Z,23.30
2019-05-11T10:32:09.213Z,21.23
2019-05-11T10:34:38.515Z,20.10
2019-05-11T10:37:05.141Z,12.67
2019-05-11T10:39:32.562Z,17.13
2019-05-11T10:41:59.769Z,8.73
2019-05-11T10:44:28.131Z,11.00
2019-05-11T10:46:55.178Z,11.40
2019-05-11T10:49:22.664Z,13.30
2019-05-11T10:51:49.905Z,8.70
2019-05-11T10:54:18.717Z,9.93
2019-05-11T10:56:48.022Z,11.00
2019-05-11T10:59:15.681Z,9.00
2019-05-11T11:01:42.744Z,13.50
2019-05-11T11:04:10.009Z,6.57
2019-05-11T11:06:38.652Z,9.43
2019-05-11T11:09:08.284Z,8.90
2019-05-11T11:11:35.511Z,11.23
2019-05-11T11:14:02.719Z,5.23
2019-05-11T11:16:37.005Z,12.80
2019-05-11T11:18:58.961Z,16.03
2019-05-11T11:21:27.910Z,11.00
2019-05-11T11:23:54.947Z,6.60
2019-05-11T11:26:21.945Z,6.93
2019-05-11T11:28:48.888Z,8.80
2019-05-11T11:31:18.385Z,7.77
2019-05-11T11:33:44.759Z,12.17
2019-05-11T11:36:11.903Z,12.10
2019-05-11T11:38:38.873Z,10.27
2019-05-11T11:41:07.667Z,9.87
2019-05-11T11:43:34.812Z,9.80
2019-05-11T11:46:01.794Z,8.00
2019-05-11T11:48:28.747Z,8.20
2019-05-11T11:50:55.722Z,10.33
2019-05-11T11:53:22.676Z,9.20
2019-05-11T11:55:50.157Z,11.27
2019-05-11T11:58:23.075Z,9.90
2019-05-11T12:00:48.178Z,8.87
2019-05-11T12:03:14.924Z,9.67
2019-05-11T12:05:41.883Z,10.03
2019-05-11T12:08:08.835Z,7.97
2019-05-11T12:10:37.810Z,10.80
2019-05-11T12:13:04.624Z,9.63
2019-05-11T12:15:31.600Z,10.37
2019-05-11T12:17:58.872Z,9.60
2019-05-11T12:20:28.478Z,6.00
2019-05-11T12:22:57.974Z,12.47
2019-05-11T12:25:24.847Z,10.13
2019-05-11T12:27:51.780Z,6.83
2019-05-11T12:30:18.920Z,8.67
2019-05-11T12:32:48.894Z,6.93
2019-05-11T12:35:20.280Z,13.67
2019-05-11T12:37:48.542Z,11.17
2019-05-11T12:40:18.031Z,14.07
2019-05-11T12:42:45.293Z,6.80
2019-05-11T12:45:12.920Z,8.70
2019-05-11T12:47:39.890Z,8.40
2019-05-11T12:50:08.021Z,9.57
2019-05-11T12:52:35.458Z,6.63
2019-05-11T12:55:02.749Z,10.23
2019-05-11T12:57:29.779Z,8.00
2019-05-11T12:59:58.250Z,6.20
2019-05-11T13:02:27.462Z,7.33
2019-05-11T13:04:54.308Z,9.77
2019-05-11T13:07:21.278Z,9.47
2019-05-11T13:09:48.634Z,13.30
2019-05-11T13:12:15.796Z,11.33
2019-05-11T13:14:42.724Z,13.47
2019-05-11T13:17:09.704Z,12.53
2019-05-11T13:19:38.465Z,10.00
2019-05-11T13:22:07.758Z,9.30
2019-05-11T13:24:34.346Z,11.83
2019-05-11T13:27:01.322Z,7.60
2019-05-11T13:29:28.817Z,7.83
2019-05-11T13:31:56.007Z,12.73
2019-05-11T13:34:22.949Z,13.30
2019-05-11T13:36:49.947Z,10.10
2019-05-11T13:39:18.131Z,7.47
2019-05-11T13:41:47.456Z,9.80
2019-05-11T13:44:14.112Z,13.80
2019-05-11T13:46:41.141Z,9.97
2019-05-11T13:49:08.535Z,12.33
2019-05-11T13:51:35.712Z,10.63
2019-05-11T13:54:02.666Z,15.87
2019-05-11T13:56:32.241Z,12.20
2019-05-11T13:59:06.865Z,10.67
2019-05-11T14:01:33.837Z,14.40
2019-05-11T14:04:00.788Z,8.53
2019-05-11T14:06:28.899Z,12.87
2019-05-11T14:08:58.207Z,11.27
2019-05-11T14:11:24.794Z,7.97
2019-05-11T14:13:51.745Z,12.03
2019-05-11T14:16:18.820Z,16.10
2019-05-11T14:18:45.863Z,9.47
2019-05-11T14:21:12.787Z,11.23
2019-05-11T14:23:39.743Z,13.53
2019-05-11T14:26:08.330Z,12.33
2019-05-11T14:28:37.196Z,7.27
2019-05-11T14:31:04.404Z,11.20
2019-05-11T14:33:31.352Z,17.53
2019-05-11T14:35:58.316Z,6.40
2019-05-11T14:38:25.279Z,12.83
2019-05-11T14:40:52.247Z,12.03
2019-05-11T14:43:23.418Z,8.67
2019-05-11T14:45:50.394Z,16.60
2019-05-11T14:48:25.914Z,13.77
2019-05-11T14:50:48.737Z,11.07
2019-05-11T14:53:15.217Z,10.20
2019-05-11T14:55:42.143Z,7.30
2019-05-11T14:58:09.107Z,8.57
2019-05-11T15:00:36.963Z,7.90
2019-05-11T15:03:04.899Z,10.93
2019-05-11T15:05:31.856Z,14.97
2019-05-11T15:07:58.915Z,13.63
2019-05-11T15:10:27.768Z,14.73
2019-05-11T15:12:54.810Z,7.43
2019-05-11T15:15:21.746Z,7.63
2019-05-11T15:17:49.472Z,7.27
2019-05-11T15:20:17.693Z,5.23
2019-05-11T15:22:45.056Z,10.27
2019-05-11T15:25:13.625Z,19.20
2019-05-11T15:27:40.582Z,9.73
2019-05-11T15:30:08.060Z,10.20
2019-05-11T15:32:35.091Z,5.20
2019-05-11T15:35:02.089Z,4.30
2019-05-11T15:37:29.025Z,4.93
2019-05-11T15:40:11.613Z,12.93
2019-05-11T15:42:38.575Z,6.57
2019-05-11T15:45:07.926Z,5.33
2019-05-11T15:47:34.508Z,5.07
2019-05-11T15:50:01.485Z,5.43
2019-05-11T15:52:28.403Z,5.73
2019-05-11T15:54:55.367Z,5.40
2019-05-11T15:57:22.279Z,3.53
2019-05-11T15:59:49.266Z,5.87
2019-05-11T16:02:17.990Z,5.20
2019-05-11T16:04:45.056Z,6.13
2019-05-11T16:07:11.992Z,5.73
2019-05-11T16:09:38.940Z,6.83
2019-05-11T16:12:05.859Z,3.60
2019-05-11T16:14:32.955Z,11.20
2019-05-11T16:16:59.907Z,4.90
2019-05-11T16:19:28.109Z,8.40
2019-05-11T16:21:55.249Z,2.90
2019-05-11T16:24:22.205Z,5.03
2019-05-11T16:26:49.655Z,3.73
2019-05-11T16:29:18.978Z,6.13
2019-05-11T16:31:45.697Z,6.73
2019-05-11T16:34:12.678Z,6.50
2019-05-11T16:36:39.605Z,4.00
2019-05-11T16:39:10.331Z,4.10
2019-05-11T16:41:38.240Z,6.97
2019-05-11T16:44:07.693Z,6.90
2019-05-11T16:46:34.736Z,5.37
2019-05-11T16:49:01.707Z,3.67
2019-05-11T16:51:28.782Z,5.43
2019-05-11T16:53:55.735Z,3.80
2019-05-11T16:56:22.668Z,4.00
2019-05-11T16:58:50.424Z,3.77
2019-05-11T17:01:18.860Z,1.90
2019-05-11T17:03:48.090Z,2.50
2019-05-11T17:06:14.890Z,3.67
2019-05-11T17:08:41.831Z,1.67
2019-05-11T17:11:08.804Z,2.80
2019-05-11T17:13:37.772Z,9.67
2019-05-11T17:16:04.587Z,4.70
2019-05-11T17:18:31.538Z,4.13
2019-05-11T17:20:58.713Z,2.27
2019-05-11T17:23:25.973Z,3.23
2019-05-11T17:25:53.030Z,6.87
2019-05-11T17:28:19.941Z,4.47
2019-05-11T17:30:48.108Z,3.50
2019-05-11T17:33:17.435Z,8.03
2019-05-11T17:35:44.110Z,2.70
2019-05-11T17:38:11.120Z,5.10
2019-05-11T17:40:38.129Z,6.00
2019-05-11T17:43:05.085Z,2.23
2019-05-11T17:45:32.068Z,2.80
2019-05-11T17:47:59.013Z,5.90
2019-05-11T17:50:28.045Z,2.57
2019-05-11T17:52:54.862Z,4.77
2019-05-11T17:55:21.862Z,7.50
2019-05-11T17:57:50.460Z,5.07
2019-05-11T18:00:20.093Z,3.50
2019-05-11T18:02:49.081Z,7.93
2019-05-11T18:05:17.868Z,2.80
2019-05-11T18:07:45.650Z,5.17
2019-05-11T18:10:12.703Z,2.13
2019-05-11T18:12:40.045Z,9.03
2019-05-11T18:15:08.231Z,2.03
2019-05-11T18:17:35.485Z,7.73
2019-05-11T18:20:14.744Z,3.00
2019-05-11T18:22:31.840Z,3.57
2019-05-11T18:24:58.800Z,6.33
2019-05-11T18:27:27.714Z,2.30
2019-05-11T18:29:54.597Z,3.07
2019-05-11T18:32:21.536Z,6.73
2019-05-11T18:34:48.592Z,3.87
2019-05-11T18:37:15.565Z,5.33
2019-05-11T18:39:42.492Z,4.73
2019-05-11T18:42:09.474Z,1.90
2019-05-11T18:44:37.958Z,2.80
2019-05-11T18:47:05.431Z,2.60
2019-05-11T18:49:32.363Z,3.40
2019-05-11T18:51:59.340Z,2.33
2019-05-11T18:54:27.712Z,1.73
2019-05-11T18:56:54.848Z,3.87
2019-05-11T18:59:21.794Z,1.53
2019-05-11T19:01:48.800Z,1.87
2019-05-11T19:04:18.202Z,4.93
2019-05-11T19:06:44.581Z,4.27
2019-05-11T19:09:11.519Z,1.93
2019-05-11T19:11:38.626Z,5.60
2019-05-11T19:14:08.534Z,5.30
2019-05-11T19:16:35.885Z,2.77
2019-05-11T19:19:02.815Z,7.83
2019-05-11T19:21:29.866Z,4.90
2019-05-11T19:23:58.119Z,6.17
2019-05-11T19:26:25.162Z,8.63
2019-05-11T19:28:52.077Z,2.13
2019-05-11T19:31:19.232Z,8.80
2019-05-11T19:33:48.733Z,1.70
2019-05-11T19:36:15.037Z,4.30
2019-05-11T19:38:42.020Z,2.80
2019-05-11T19:41:09.845Z,2.30
2019-05-11T19:43:38.133Z,6.20
2019-05-11T19:46:05.248Z,2.90
2019-05-11T19:48:32.192Z,5.77
2019-05-11T19:51:07.478Z,5.00
2019-05-11T19:53:28.227Z,2.97
2019-05-11T19:55:55.306Z,3.30
2019-05-11T19:58:22.227Z,3.90
2019-05-11T20:00:49.155Z,2.73
2019-05-11T20:03:18.295Z,6.83
2019-05-11T20:05:44.958Z,3.47
2019-05-11T20:08:11.958Z,7.63
2019-05-11T20:10:38.897Z,6.33
2019-05-11T20:13:07.971Z,4.03
2019-05-11T20:15:35.169Z,3.43
2019-05-11T20:18:02.257Z,6.10
2019-05-11T20:20:29.192Z,8.33
2019-05-11T20:22:58.276Z,8.23
2019-05-11T20:25:24.984Z,6.33
2019-05-11T20:27:51.942Z,3.13
2019-05-11T20:30:19.352Z,3.07
2019-05-11T20:32:48.352Z,5.43
2019-05-11T20:35:15.475Z,2.90
2019-05-11T20:37:42.440Z,4.43
2019-05-11T20:40:10.089Z,4.47
2019-05-11T20:42:38.085Z,14.23
2019-05-11T20:45:07.591Z,4.03
2019-05-11T20:47:33.953Z,8.70
2019-05-11T20:50:00.889Z,2.03
2019-05-11T20:52:28.425Z,8.53
2019-05-11T20:54:58.205Z,7.10
2019-05-11T20:57:24.446Z,7.40
2019-05-11T20:59:51.376Z,5.87
2019-05-11T21:02:18.439Z,6.00
2019-05-11T21:04:45.410Z,3.60
2019-05-11T21:07:12.438Z,4.27
2019-05-11T21:09:39.398Z,2.40
2019-05-11T21:12:08.135Z,2.53
2019-05-11T21:14:35.199Z,3.23
2019-05-11T21:17:02.116Z,5.80
2019-05-11T21:19:29.126Z,4.07
2019-05-11T21:21:58.768Z,5.43
2019-05-11T21:24:28.102Z,2.40
2019-05-11T21:26:55.152Z,6.53
2019-05-11T21:29:22.169Z,4.73
2019-05-11T21:31:49.107Z,2.50
2019-05-11T21:34:18.159Z,4.73
2019-05-11T21:36:44.978Z,3.00
2019-05-11T21:39:11.949Z,4.63
2019-05-11T21:41:38.912Z,2.93
2019-05-11T21:44:07.789Z,4.30
2019-05-11T21:46:34.839Z,3.43
2019-05-11T21:49:01.831Z,4.23
2019-05-11T21:51:28.848Z,5.97
2019-05-11T21:53:57.854Z,10.00
2019-05-11T21:56:24.993Z,3.80
2019-05-11T21:58:53.710Z,1.77
2019-05-11T22:01:20.794Z,7.93
2019-05-11T22:03:48.046Z,2.90
2019-05-11T22:06:15.123Z,3.80
2019-05-11T22:08:42.132Z,6.37
2019-05-11T22:11:09.052Z,5.50
2019-05-11T22:13:37.880Z,6.90
2019-05-11T22:16:04.872Z,6.37
2019-05-11T22:18:31.854Z,7.80
2019-05-11T22:20:58.775Z,3.97
2019-05-11T22:23:28.021Z,4.87
2019-05-11T22:25:54.608Z,3.50
2019-05-11T22:28:21.601Z,4.63
2019-05-11T22:30:48.527Z,3.13
2019-05-11T22:33:17.658Z,3.90
2019-05-11T22:35:44.313Z,3.23
2019-05-11T22:38:11.237Z,5.23
2019-05-11T22:40:38.533Z,2.07
2019-05-11T22:43:05.570Z,6.50
2019-05-11T22:45:32.572Z,4.60
2019-05-11T22:48:02.532Z,6.10
2019-05-11T22:50:29.516Z,7.40
2019-05-11T22:52:56.435Z,7.30
2019-05-11T22:55:27.713Z,4.00
2019-05-11T22:57:54.753Z,4.10
2019-05-11T23:00:39.590Z,6.33
2019-05-11T23:03:07.699Z,5.23
2019-05-11T23:05:35.373Z,6.93
2019-05-11T23:08:02.344Z,4.63
2019-05-11T23:10:29.308Z,4.73
2019-05-11T23:12:56.239Z,4.90
2019-05-11T23:15:23.218Z,7.53
2019-05-11T23:17:50.151Z,7.43
2019-05-11T23:20:17.231Z,6.70
2019-05-11T23:22:57.058Z,1.93
2019-05-11T23:25:18.485Z,5.27
2019-05-11T23:27:45.289Z,4.03
2019-05-11T23:30:12.719Z,2.40
2019-05-11T23:32:39.617Z,3.17
2019-05-11T23:35:08.384Z,3.83
2019-05-11T23:37:35.517Z,7.30
2019-05-11T23:40:02.527Z,5.03
2019-05-11T23:42:30.983Z,4.30
2019-05-11T23:44:58.661Z,8.73
2019-05-11T23:47:25.659Z,9.00
2019-05-11T23:49:52.622Z,4.57
2019-05-11T23:52:19.554Z,5.63
2019-05-11T23:54:48.474Z,3.30
2019-05-11T23:57:15.545Z,4.60
2019-05-11T23:59:42.528Z,2.30
